Time;durP1;ratioP1;P1;durP2;ratioP2;P2;SDS_P1;SDS_P2;PMS_P1;PMS_P2;Temp;Humidity;BMP_temperature;BMP_pressure;BME280_temperature;BME280_humidity;BME280_pressure;Samples;Min_cycle;Max_cycle;Signal;HPM_P1;HPM_P2
2023/06/18 00:00:30;;;;;;;1.67;1.20;;;24.80;50.70;;;;;;5039413;28;20025;-59
2023/06/18 00:02:55;;;;;;;2.45;1.30;;;24.80;50.60;;;;;;5062614;28;20107;-60
2023/06/18 00:05:21;;;;;;;1.35;1.00;;;24.80;50.50;;;;;;5062530;28;20070;-59
2023/06/18 00:07:47;;;;;;;2.00;1.25;;;24.80;50.40;;;;;;5061374;28;20037;-62
2023/06/18 00:10:13;;;;;;;1.63;1.17;;;24.70;50.20;;;;;;5049313;28;20471;-63
2023/06/18 00:12:38;;;;;;;1.38;1.27;;;24.70;50.10;;;;;;5064729;28;20032;-62
2023/06/18 00:15:04;;;;;;;2.50;0.90;;;24.70;50.00;;;;;;5062287;28;20538;-62
2023/06/18 00:17:30;;;;;;;3.08;1.50;;;24.70;49.90;;;;;;5050457;28;20036;-62
2023/06/18 00:19:56;;;;;;;2.33;1.67;;;24.70;50.00;;;;;;5044233;28;20404;-62
2023/06/18 00:22:23;;;;;;;3.10;1.58;;;24.70;50.10;;;;;;5065609;28;20028;-63
2023/06/18 00:24:48;;;;;;;1.50;1.30;;;24.70;50.40;;;;;;5067416;28;20120;-62
2023/06/18 00:27:14;;;;;;;1.83;1.23;;;24.70;50.60;;;;;;5047496;28;20171;-60
2023/06/18 00:29:40;;;;;;;2.45;1.10;;;24.70;50.50;;;;;;5063833;28;20096;-60
2023/06/18 00:32:07;;;;;;;4.88;1.45;;;24.60;50.80;;;;;;5061544;28;20115;-60
2023/06/18 00:34:33;;;;;;;2.28;1.00;;;24.60;51.10;;;;;;5063543;28;20041;-60
2023/06/18 00:37:00;;;;;;;1.55;1.45;;;24.50;50.90;;;;;;5065842;28;20111;-60
2023/06/18 00:39:26;;;;;;;1.70;1.02;;;24.50;50.80;;;;;;5069601;28;20119;-60
2023/06/18 00:41:52;;;;;;;1.45;1.10;;;24.40;50.60;;;;;;5065991;28;20463;-59
2023/06/18 00:44:21;;;;;;;1.48;1.00;;;24.40;50.60;;;;;;5048902;28;20039;-60
2023/06/18 00:46:51;;;;;;;1.52;1.13;;;24.40;50.40;;;;;;5068360;28;20028;-60
2023/06/18 00:49:18;;;;;;;2.97;1.20;;;24.40;50.40;;;;;;5066084;28;20090;-62
2023/06/18 00:51:46;;;;;;;1.50;1.40;;;24.40;50.30;;;;;;5065642;28;20017;-60
2023/06/18 00:54:15;;;;;;;2.83;1.60;;;24.40;50.20;;;;;;5068779;28;20033;-60
2023/06/18 00:56:53;;;;;;;1.95;1.10;;;24.40;50.30;;;;;;5067501;28;20051;-61
2023/06/18 00:59:22;;;;;;;3.00;1.45;;;24.30;50.40;;;;;;5065297;28;20033;-59
2023/06/18 01:01:56;;;;;;;2.05;1.00;;;24.30;50.30;;;;;;5068412;28;20020;-62
2023/06/18 01:04:26;;;;;;;1.42;1.05;;;24.30;50.40;;;;;;5064889;28;20044;-62
2023/06/18 01:06:57;;;;;;;2.15;1.50;;;24.20;50.50;;;;;;5049803;28;20078;-61
2023/06/18 01:09:25;;;;;;;1.65;0.95;;;24.20;51.00;;;;;;5067141;28;20063;-62
2023/06/18 01:11:52;;;;;;;2.45;1.55;;;24.20;51.20;;;;;;5060014;28;20023;-60
2023/06/18 01:14:22;;;;;;;2.25;1.10;;;24.10;51.10;;;;;;5031217;28;20051;-59
2023/06/18 01:16:49;;;;;;;2.42;1.45;;;24.10;51.30;;;;;;5068602;28;20091;-60
2023/06/18 01:19:47;;;;;;;1.10;1.00;;;24.00;51.50;;;;;;5067642;28;20036;-60
2023/06/18 01:22:30;;;;;;;0.80;0.80;;;24.00;51.50;;;;;;5055685;28;20028;-59
2023/06/18 01:24:58;;;;;;;0.98;0.85;;;23.90;51.70;;;;;;5065799;28;20040;-61
2023/06/18 01:27:27;;;;;;;2.38;1.20;;;23.90;52.00;;;;;;5047953;28;20505;-62
2023/06/18 01:29:56;;;;;;;1.25;0.90;;;23.80;52.00;;;;;;5062317;28;20031;-62
2023/06/18 01:32:21;;;;;;;1.67;1.20;;;23.70;52.30;;;;;;5067171;28;20055;-62
2023/06/18 01:34:47;;;;;;;1.08;0.90;;;23.70;52.20;;;;;;5038604;28;20029;-62
2023/06/18 01:38:03;;;;;;;2.25;1.52;;;23.70;52.20;;;;;;5066310;28;20029;-62
2023/06/18 01:40:49;;;;;;;2.60;1.10;;;23.70;52.20;;;;;;4969021;28;20578;-62
2023/06/18 01:43:29;;;;;;;2.03;1.20;;;23.70;52.40;;;;;;5063162;28;20044;-65
2023/06/18 01:46:03;;;;;;;1.75;1.25;;;23.60;52.60;;;;;;5056987;28;20086;-64
2023/06/18 01:48:45;;;;;;;1.65;1.42;;;23.60;52.80;;;;;;5060021;28;20102;-63
2023/06/18 01:51:14;;;;;;;1.70;1.40;;;23.60;52.50;;;;;;5055299;28;20116;-61
2023/06/18 01:53:40;;;;;;;1.80;1.08;;;23.50;52.50;;;;;;5066383;28;20024;-62
2023/06/18 01:56:09;;;;;;;2.85;1.25;;;23.50;52.80;;;;;;5056928;28;20547;-62
2023/06/18 01:58:36;;;;;;;1.73;1.00;;;23.50;52.90;;;;;;5062495;28;20024;-60
2023/06/18 02:01:03;;;;;;;2.15;1.50;;;23.50;53.00;;;;;;5064591;28;20111;-60
2023/06/18 02:03:29;;;;;;;1.88;1.00;;;23.50;53.00;;;;;;5061771;28;20036;-60
2023/06/18 02:05:55;;;;;;;1.80;1.10;;;23.40;53.10;;;;;;5034232;28;20484;-60
2023/06/18 02:08:20;;;;;;;2.03;1.30;;;23.40;53.40;;;;;;5039153;28;20068;-60
2023/06/18 02:10:46;;;;;;;1.65;1.15;;;23.30;53.50;;;;;;5045346;28;20033;-59
2023/06/18 02:13:12;;;;;;;2.83;1.40;;;23.30;53.90;;;;;;5043982;28;20155;-59
2023/06/18 02:15:39;;;;;;;2.08;1.15;;;23.20;53.90;;;;;;5047284;28;20168;-60
2023/06/18 02:18:05;;;;;;;1.73;0.98;;;23.20;54.00;;;;;;5062562;28;20047;-59
2023/06/18 02:20:31;;;;;;;2.05;1.40;;;23.20;53.90;;;;;;5042188;28;20029;-62
2023/06/18 02:22:58;;;;;;;2.53;1.60;;;23.10;53.80;;;;;;5068083;28;20032;-59
2023/06/18 02:25:29;;;;;;;1.27;1.15;;;23.10;53.80;;;;;;5065201;28;20044;-60
2023/06/18 02:27:57;;;;;;;1.45;1.27;;;23.10;53.80;;;;;;5065173;28;20590;-60
2023/06/18 02:30:23;;;;;;;1.05;0.93;;;23.10;54.10;;;;;;5065656;28;20107;-60
2023/06/18 02:32:48;;;;;;;2.20;1.67;;;23.00;54.10;;;;;;5064187;28;20118;-60
2023/06/18 02:35:15;;;;;;;1.92;1.10;;;23.00;54.20;;;;;;5067554;28;20060;-59
2023/06/18 02:37:42;;;;;;;0.88;0.85;;;23.00;54.50;;;;;;5064082;28;20028;-62
2023/06/18 02:40:09;;;;;;;1.67;1.20;;;22.90;54.70;;;;;;5064992;28;20113;-61
2023/06/18 02:42:35;;;;;;;1.48;1.30;;;22.90;55.10;;;;;;5069353;28;20032;-62
2023/06/18 02:45:02;;;;;;;1.17;1.00;;;22.80;55.40;;;;;;5045983;28;20033;-62
2023/06/18 02:47:28;;;;;;;1.75;1.50;;;22.70;55.90;;;;;;5066210;28;20454;-61
2023/06/18 02:49:54;;;;;;;1.90;1.20;;;22.70;56.00;;;;;;5067550;28;20028;-62
2023/06/18 02:52:20;;;;;;;1.38;1.27;;;22.60;55.80;;;;;;5066638;28;20029;-61
2023/06/18 02:54:46;;;;;;;1.45;1.10;;;22.50;55.80;;;;;;5065125;28;20039;-62
2023/06/18 02:57:11;;;;;;;2.80;1.15;;;22.50;56.10;;;;;;5068229;28;20029;-62
2023/06/18 02:59:37;;;;;;;1.65;1.20;;;22.50;56.30;;;;;;5067159;28;20033;-62
2023/06/18 03:02:04;;;;;;;1.88;1.33;;;22.40;56.40;;;;;;5064388;28;20025;-61
2023/06/18 03:04:30;;;;;;;2.30;1.73;;;22.40;56.60;;;;;;5061666;28;20033;-64
2023/06/18 03:06:59;;;;;;;2.33;1.10;;;22.30;56.80;;;;;;5046653;28;20123;-63
2023/06/18 03:09:25;;;;;;;1.33;1.23;;;22.30;57.10;;;;;;5068734;28;20468;-62
2023/06/18 03:11:51;;;;;;;2.20;1.58;;;22.20;57.20;;;;;;5069283;28;20468;-62
2023/06/18 03:14:16;;;;;;;2.08;1.65;;;22.20;57.40;;;;;;5062236;28;20040;-62
2023/06/18 03:16:42;;;;;;;1.60;1.45;;;22.10;57.50;;;;;;5053414;28;20063;-62
2023/06/18 03:19:08;;;;;;;2.35;1.30;;;22.10;57.60;;;;;;5064009;28;20484;-63
2023/06/18 03:21:34;;;;;;;1.40;1.15;;;22.10;57.70;;;;;;5063656;28;20029;-60
2023/06/18 03:24:00;;;;;;;2.58;1.23;;;22.10;57.80;;;;;;5047692;28;20043;-60
2023/06/18 03:26:26;;;;;;;1.08;0.90;;;22.00;57.80;;;;;;5068478;28;20075;-63
2023/06/18 03:28:52;;;;;;;1.35;0.90;;;22.00;57.70;;;;;;5062017;28;20029;-62
2023/06/18 03:31:17;;;;;;;1.52;1.10;;;22.00;57.80;;;;;;5068396;28;20028;-62
2023/06/18 03:33:43;;;;;;;1.50;1.13;;;21.90;58.00;;;;;;5060217;28;20082;-62
2023/06/18 03:36:09;;;;;;;2.63;1.45;;;21.90;58.20;;;;;;5059599;28;20482;-62
2023/06/18 03:38:35;;;;;;;5.95;1.77;;;21.90;58.30;;;;;;5041826;28;20043;-62
2023/06/18 03:41:01;;;;;;;5.82;1.40;;;21.80;58.30;;;;;;5070583;28;20111;-62
2023/06/18 03:43:30;;;;;;;1.50;1.13;;;21.80;58.50;;;;;;5065228;28;20418;-62
2023/06/18 03:45:55;;;;;;;1.45;1.30;;;21.80;58.60;;;;;;5049029;28;20067;-62
2023/06/18 03:48:21;;;;;;;1.15;1.05;;;21.80;58.60;;;;;;5038863;28;20483;-62
2023/06/18 03:50:46;;;;;;;1.85;1.40;;;21.80;58.50;;;;;;5060768;28;20491;-62
2023/06/18 03:53:12;;;;;;;2.15;1.38;;;21.80;58.60;;;;;;5047358;28;20515;-62
2023/06/18 03:55:38;;;;;;;1.80;1.20;;;21.80;58.70;;;;;;5060012;28;20100;-62
2023/06/18 03:58:04;;;;;;;1.67;1.40;;;21.90;58.80;;;;;;5066324;28;20483;-62
2023/06/18 04:00:30;;;;;;;2.22;1.50;;;21.80;58.80;;;;;;5045043;28;20029;-62
2023/06/18 04:02:56;;;;;;;2.13;1.50;;;21.90;58.80;;;;;;5059280;28;20041;-59
2023/06/18 04:05:23;;;;;;;2.42;1.67;;;21.90;59.30;;;;;;5037940;28;20064;-62
2023/06/18 04:07:49;;;;;;;1.70;1.50;;;21.90;58.60;;;;;;5062444;28;20037;-62
2023/06/18 04:10:14;;;;;;;1.70;1.10;;;22.00;58.50;;;;;;5049212;28;20040;-62
2023/06/18 04:12:40;;;;;;;2.42;1.45;;;22.00;58.50;;;;;;5060909;28;20112;-62
2023/06/18 04:15:06;;;;;;;2.15;1.27;;;22.00;58.80;;;;;;5056058;28;20107;-62
2023/06/18 04:17:39;;;;;;;1.92;1.40;;;22.00;59.00;;;;;;5061562;28;20063;-62
2023/06/18 04:20:06;;;;;;;2.88;1.90;;;22.10;59.10;;;;;;5064002;28;20029;-62
2023/06/18 04:22:31;;;;;;;4.55;1.88;;;22.10;59.80;;;;;;5039457;28;20033;-62
2023/06/18 04:24:57;;;;;;;2.80;1.52;;;22.10;59.50;;;;;;5059841;28;20028;-60
2023/06/18 04:27:23;;;;;;;1.98;1.45;;;22.20;59.50;;;;;;5063247;28;20040;-60
2023/06/18 04:29:48;;;;;;;2.35;1.83;;;22.20;59.30;;;;;;5047468;28;20032;-60
2023/06/18 04:32:14;;;;;;;2.45;1.50;;;22.30;59.30;;;;;;5042783;28;20033;-60
2023/06/18 04:34:39;;;;;;;6.18;2.13;;;22.30;59.50;;;;;;5066663;28;20029;-60
2023/06/18 04:37:06;;;;;;;3.08;1.63;;;22.40;59.40;;;;;;5055229;28;20044;-59
2023/06/18 04:39:31;;;;;;;2.92;1.48;;;22.40;59.20;;;;;;5059696;28;20029;-59
2023/06/18 04:41:57;;;;;;;3.88;2.00;;;22.50;59.30;;;;;;5058246;28;20040;-59
2023/06/18 04:44:23;;;;;;;4.70;1.73;;;22.50;59.00;;;;;;5060680;28;20064;-60
2023/06/18 04:46:49;;;;;;;3.25;1.70;;;22.50;58.80;;;;;;5059190;28;20464;-61
2023/06/18 04:49:15;;;;;;;2.28;1.50;;;22.60;59.40;;;;;;5062743;28;20029;-62
2023/06/18 04:51:43;;;;;;;4.50;1.52;;;22.60;58.60;;;;;;5057223;28;20502;-62
2023/06/18 04:54:09;;;;;;;1.58;1.33;;;22.70;58.50;;;;;;5060790;28;20119;-62
2023/06/18 04:56:34;;;;;;;1.98;1.40;;;22.70;58.40;;;;;;5062583;28;20117;-62
2023/06/18 04:59:00;;;;;;;2.13;1.83;;;22.80;58.30;;;;;;5066050;28;20028;-59
2023/06/18 05:01:26;;;;;;;1.98;1.75;;;22.80;58.20;;;;;;5064630;28;20564;-62
2023/06/18 05:03:52;;;;;;;2.20;1.48;;;22.80;58.10;;;;;;5063613;28;20032;-61
2023/06/18 05:06:18;;;;;;;3.35;1.65;;;22.90;58.10;;;;;;5058453;28;20036;-60
2023/06/18 05:08:44;;;;;;;3.05;1.58;;;22.90;58.10;;;;;;5066564;28;20497;-60
2023/06/18 05:11:09;;;;;;;3.47;2.22;;;22.90;57.90;;;;;;5058845;28;20025;-60
2023/06/18 05:13:35;;;;;;;2.08;1.50;;;23.00;57.90;;;;;;5043480;28;20497;-62
2023/06/18 05:16:01;;;;;;;3.42;1.77;;;23.00;57.90;;;;;;5062136;28;20025;-60
2023/06/18 05:18:26;;;;;;;2.85;1.70;;;23.00;58.00;;;;;;5066934;28;20025;-60
2023/06/18 05:20:52;;;;;;;2.78;1.73;;;23.10;58.00;;;;;;5064019;28;20029;-62
2023/06/18 05:23:17;;;;;;;4.25;2.28;;;23.00;57.80;;;;;;5067279;28;20037;-62
2023/06/18 05:25:43;;;;;;;2.78;1.95;;;23.10;57.90;;;;;;5048372;28;20037;-62
2023/06/18 05:28:09;;;;;;;2.70;1.88;;;23.00;57.70;;;;;;5060219;28;20032;-62
2023/06/18 05:30:34;;;;;;;1.90;1.58;;;23.10;57.90;;;;;;5059209;28;20112;-61
2023/06/18 05:33:00;;;;;;;1.92;1.55;;;23.00;57.80;;;;;;5068643;28;20119;-62
2023/06/18 05:35:26;;;;;;;1.95;1.52;;;23.10;57.80;;;;;;5047398;28;20029;-62
2023/06/18 05:37:51;;;;;;;2.33;1.65;;;23.10;57.80;;;;;;5050024;28;20039;-60
2023/06/18 05:40:17;;;;;;;3.88;2.17;;;23.10;57.80;;;;;;5067121;28;20442;-60
2023/06/18 05:42:43;;;;;;;3.70;1.50;;;23.10;57.90;;;;;;5068395;28;20376;-61
2023/06/18 05:45:09;;;;;;;2.20;1.67;;;23.10;57.80;;;;;;5066182;28;20511;-62
2023/06/18 05:47:34;;;;;;;2.25;1.75;;;23.20;57.80;;;;;;5049645;28;20051;-62
2023/06/18 05:50:00;;;;;;;2.40;1.85;;;23.20;57.70;;;;;;5064959;28;20111;-62
2023/06/18 05:52:26;;;;;;;2.72;1.42;;;23.30;57.50;;;;;;5060547;28;20033;-60
2023/06/18 05:54:51;;;;;;;2.05;1.30;;;23.40;57.50;;;;;;5057885;28;20032;-59
2023/06/18 05:57:17;;;;;;;2.05;1.52;;;23.40;57.50;;;;;;5061188;28;20037;-60
2023/06/18 05:59:43;;;;;;;2.50;1.92;;;23.50;57.40;;;;;;5060115;28;20029;-60
2023/06/18 06:02:08;;;;;;;3.42;1.77;;;23.50;57.20;;;;;;5059083;28;20039;-59
2023/06/18 06:04:37;;;;;;;1.92;1.70;;;23.50;57.20;;;;;;5067544;28;20020;-59
2023/06/18 06:07:02;;;;;;;2.75;1.75;;;23.60;57.00;;;;;;5068046;28;20131;-60
2023/06/18 06:09:28;;;;;;;2.05;1.40;;;23.60;56.80;;;;;;5069019;28;20661;-59
2023/06/18 06:11:54;;;;;;;1.95;1.73;;;23.70;56.60;;;;;;5064434;28;20510;-59
2023/06/18 06:14:20;;;;;;;2.17;1.92;;;23.80;56.60;;;;;;5064999;28;20036;-59
2023/06/18 06:16:45;;;;;;;1.42;1.20;;;23.90;56.40;;;;;;5068785;28;20036;-59
2023/06/18 06:19:11;;;;;;;2.00;1.63;;;23.90;56.30;;;;;;5064807;28;20037;-62
2023/06/18 06:21:36;;;;;;;2.13;1.67;;;24.00;56.20;;;;;;5062833;28;20056;-61
2023/06/18 06:24:02;;;;;;;3.05;2.05;;;24.10;56.00;;;;;;5053821;28;20049;-64
2023/06/18 06:26:28;;;;;;;2.85;2.03;;;24.20;55.90;;;;;;5062094;28;20445;-61
2023/06/18 06:28:54;;;;;;;2.65;2.10;;;24.30;55.60;;;;;;5055818;28;20025;-62
2023/06/18 06:31:20;;;;;;;4.20;2.20;;;24.40;55.50;;;;;;5065935;28;20036;-62
2023/06/18 06:33:46;;;;;;;3.75;2.00;;;24.50;55.10;;;;;;5041085;28;20033;-62
2023/06/18 06:36:12;;;;;;;3.47;2.20;;;24.50;54.80;;;;;;5055913;28;20468;-62
2023/06/18 06:38:38;;;;;;;3.28;2.05;;;24.50;54.70;;;;;;5060904;28;20039;-62
2023/06/18 06:41:04;;;;;;;2.35;1.65;;;24.60;54.70;;;;;;5063405;28;20496;-60
2023/06/18 06:43:30;;;;;;;3.20;2.10;;;24.70;54.50;;;;;;5057633;28;20033;-60
2023/06/18 06:45:56;;;;;;;4.07;2.97;;;24.80;54.00;;;;;;5071720;28;20049;-61
2023/06/18 06:48:21;;;;;;;2.40;1.80;;;24.90;53.50;;;;;;5050026;28;20040;-60
2023/06/18 06:50:47;;;;;;;4.28;2.00;;;25.00;53.30;;;;;;5062616;28;20025;-60
2023/06/18 06:53:13;;;;;;;5.10;1.90;;;25.10;52.90;;;;;;5064337;28;20024;-60
2023/06/18 06:55:38;;;;;;;3.72;2.55;;;25.30;52.70;;;;;;5065691;28;20028;-60
2023/06/18 06:58:04;;;;;;;3.33;2.40;;;25.30;52.50;;;;;;5067514;28;20036;-60
2023/06/18 07:00:29;;;;;;;2.72;1.80;;;25.40;52.20;;;;;;5044823;28;20037;-60
2023/06/18 07:02:55;;;;;;;2.88;2.00;;;25.50;51.80;;;;;;5063827;28;20341;-60
2023/06/18 07:05:21;;;;;;;5.10;2.20;;;25.60;51.80;;;;;;5059638;28;20036;-61
2023/06/18 07:07:46;;;;;;;2.88;1.77;;;25.60;51.50;;;;;;5066600;28;20051;-61
2023/06/18 07:10:12;;;;;;;2.90;1.90;;;25.70;51.30;;;;;;5044267;28;20120;-60
2023/06/18 07:12:38;;;;;;;4.55;2.58;;;25.80;51.20;;;;;;5063174;28;20021;-60
2023/06/18 07:15:04;;;;;;;2.92;1.60;;;25.80;50.90;;;;;;5058452;28;20039;-61
2023/06/18 07:17:30;;;;;;;3.10;2.17;;;25.90;50.80;;;;;;5068185;28;20009;-60
2023/06/18 07:19:56;;;;;;;3.78;2.55;;;26.00;50.50;;;;;;5039461;28;20036;-61
2023/06/18 07:22:22;;;;;;;3.10;1.80;;;26.10;50.50;;;;;;5063830;28;20487;-61
2023/06/18 07:24:47;;;;;;;3.47;2.20;;;26.20;50.40;;;;;;5067759;28;20033;-61
2023/06/18 07:27:14;;;;;;;3.20;2.25;;;26.30;50.30;;;;;;5069378;28;20040;-61
2023/06/18 07:29:40;;;;;;;3.72;2.20;;;26.40;50.00;;;;;;5064564;28;20027;-61
2023/06/18 07:32:06;;;;;;;3.22;2.20;;;26.40;49.60;;;;;;5066220;28;20029;-61
2023/06/18 07:34:31;;;;;;;4.22;2.53;;;26.50;49.60;;;;;;5065606;28;20037;-61
2023/06/18 07:36:57;;;;;;;2.60;1.80;;;26.50;49.20;;;;;;5068707;28;20036;-61
2023/06/18 07:39:23;;;;;;;3.67;2.53;;;26.50;49.20;;;;;;5066150;28;20076;-61
2023/06/18 07:41:51;;;;;;;3.03;1.83;;;26.50;49.00;;;;;;5067790;28;20043;-60
2023/06/18 07:44:17;;;;;;;3.22;2.33;;;26.60;49.10;;;;;;5068043;28;20145;-62
2023/06/18 07:46:43;;;;;;;3.20;2.20;;;26.70;49.00;;;;;;5050222;28;20028;-61
2023/06/18 07:49:09;;;;;;;3.15;2.42;;;26.70;48.80;;;;;;5066343;28;20017;-61
2023/06/18 07:51:35;;;;;;;3.90;2.58;;;26.70;48.50;;;;;;5049397;28;20035;-60
2023/06/18 07:54:01;;;;;;;3.70;2.40;;;26.80;49.10;;;;;;5066332;28;20486;-61
2023/06/18 07:56:27;;;;;;;2.88;1.90;;;26.80;48.40;;;;;;5045234;28;20539;-61
2023/06/18 07:58:52;;;;;;;2.97;2.17;;;26.80;48.40;;;;;;5050243;28;20032;-60
2023/06/18 08:01:18;;;;;;;3.40;1.98;;;26.90;48.40;;;;;;5062574;28;20053;-61
2023/06/18 08:03:44;;;;;;;3.00;2.08;;;27.10;48.20;;;;;;5040562;28;20032;-61
2023/06/18 08:06:10;;;;;;;2.85;1.73;;;27.20;47.90;;;;;;5041072;28;20028;-61
2023/06/18 08:08:35;;;;;;;3.50;2.08;;;27.20;47.40;;;;;;5061944;28;20044;-61
2023/06/18 08:11:01;;;;;;;3.25;1.88;;;27.30;46.80;;;;;;5066038;28;20025;-61
2023/06/18 08:13:27;;;;;;;4.63;2.03;;;27.20;46.00;;;;;;5062362;28;20095;-61
2023/06/18 08:15:52;;;;;;;2.20;1.80;;;27.10;45.50;;;;;;5066502;28;20055;-61
2023/06/18 08:18:18;;;;;;;3.22;2.22;;;27.00;44.80;;;;;;5045631;28;20056;-61
2023/06/18 08:20:44;;;;;;;2.30;1.90;;;26.90;45.30;;;;;;5062984;28;20443;-61
2023/06/18 08:23:09;;;;;;;2.97;2.08;;;26.90;45.10;;;;;;5064312;28;20037;-61
2023/06/18 08:25:35;;;;;;;3.55;2.45;;;26.80;45.40;;;;;;5066584;28;20048;-60
2023/06/18 08:28:01;;;;;;;2.67;2.08;;;26.80;45.30;;;;;;5061804;28;20020;-61
2023/06/18 08:30:27;;;;;;;4.07;2.42;;;26.80;45.90;;;;;;5066050;28;20078;-61
2023/06/18 08:32:56;;;;;;;5.07;2.20;;;26.80;45.90;;;;;;5061419;28;20033;-61
2023/06/18 08:35:22;;;;;;;4.30;2.72;;;26.90;46.00;;;;;;5057582;28;20028;-61
2023/06/18 08:37:48;;;;;;;2.92;1.85;;;27.00;46.00;;;;;;5047372;28;20028;-61
2023/06/18 08:40:14;;;;;;;3.85;2.28;;;27.00;45.80;;;;;;5065517;28;20075;-61
2023/06/18 08:42:41;;;;;;;2.63;1.92;;;27.00;45.60;;;;;;5057096;28;20101;-61
2023/06/18 08:45:07;;;;;;;3.70;2.00;;;27.10;45.70;;;;;;5061611;28;20029;-61
2023/06/18 08:47:33;;;;;;;2.03;1.55;;;27.20;45.60;;;;;;5057451;28;20507;-60
2023/06/18 08:49:59;;;;;;;3.95;1.90;;;27.40;45.60;;;;;;5060450;28;20031;-60
2023/06/18 08:52:29;;;;;;;3.65;1.67;;;27.50;45.50;;;;;;5055270;28;20041;-60
2023/06/18 08:54:59;;;;;;;2.78;2.00;;;27.70;45.20;;;;;;5058777;28;20048;-61
2023/06/18 08:57:34;;;;;;;3.65;2.40;;;27.80;44.80;;;;;;5059701;28;20024;-61
2023/06/18 09:00:01;;;;;;;2.47;2.03;;;28.00;44.30;;;;;;5054529;28;20480;-61
2023/06/18 09:02:27;;;;;;;2.67;1.60;;;28.00;43.90;;;;;;5060030;28;20025;-60
2023/06/18 09:04:55;;;;;;;5.22;1.88;;;28.10;43.60;;;;;;5045620;28;20028;-60
2023/06/18 09:07:24;;;;;;;2.92;2.25;;;28.10;43.70;;;;;;5053290;28;20506;-60
2023/06/18 09:09:50;;;;;;;4.43;2.05;;;28.10;43.80;;;;;;5053674;28;20922;-60
2023/06/18 09:12:16;;;;;;;2.80;1.63;;;28.20;43.60;;;;;;5061102;28;20049;-61
2023/06/18 09:14:41;;;;;;;2.22;1.42;;;28.30;43.20;;;;;;5058234;28;20027;-61
2023/06/18 09:17:07;;;;;;;2.10;1.65;;;28.40;43.10;;;;;;5056996;28;20102;-60
2023/06/18 09:19:34;;;;;;;2.28;1.83;;;28.40;42.90;;;;;;5039126;28;20028;-61
2023/06/18 09:22:16;;;;;;;2.83;2.10;;;28.50;42.60;;;;;;5055051;28;20079;-60
2023/06/18 09:24:42;;;;;;;2.92;2.55;;;28.50;42.00;;;;;;5056431;28;20078;-60
2023/06/18 09:27:09;;;;;;;5.22;2.08;;;28.60;41.90;;;;;;5060800;28;20027;-60
2023/06/18 09:29:37;;;;;;;4.00;2.13;;;28.70;41.80;;;;;;5059171;28;20425;-60
2023/06/18 09:32:07;;;;;;;3.83;1.88;;;28.80;41.50;;;;;;5056918;28;20056;-61
2023/06/18 09:34:32;;;;;;;1.55;1.40;;;28.90;41.40;;;;;;5059858;28;20064;-61
2023/06/18 09:36:58;;;;;;;3.13;2.05;;;28.90;41.30;;;;;;5057320;28;20086;-62
2023/06/18 09:39:26;;;;;;;3.22;1.88;;;29.10;41.00;;;;;;5053597;28;20044;-61
2023/06/18 09:41:53;;;;;;;2.25;2.03;;;29.10;40.30;;;;;;5050339;28;20035;-61
2023/06/18 09:44:20;;;;;;;3.15;2.08;;;29.20;40.20;;;;;;5037575;28;20029;-61
2023/06/18 09:46:48;;;;;;;2.90;1.90;;;29.30;40.40;;;;;;5061631;28;20060;-62
2023/06/18 09:49:16;;;;;;;2.40;1.60;;;29.40;40.10;;;;;;5053428;28;20383;-61
2023/06/18 09:51:43;;;;;;;3.03;1.85;;;29.50;39.80;;;;;;5056568;28;20031;-61
2023/06/18 09:54:09;;;;;;;2.67;1.77;;;29.50;39.70;;;;;;5055978;28;20052;-61
2023/06/18 09:56:35;;;;;;;3.47;1.63;;;29.50;39.80;;;;;;5035979;28;20028;-61
2023/06/18 09:59:03;;;;;;;2.10;1.48;;;29.50;39.90;;;;;;5041391;28;21173;-61
2023/06/18 10:01:43;;;;;;;2.75;1.77;;;29.60;39.70;;;;;;5052849;28;20052;-62
2023/06/18 10:04:09;;;;;;;2.35;1.75;;;29.70;39.30;;;;;;5037791;28;20033;-61
2023/06/18 10:06:37;;;;;;;2.33;1.65;;;29.80;38.80;;;;;;5059222;28;20055;-61
2023/06/18 10:09:05;;;;;;;1.30;1.20;;;29.80;38.30;;;;;;5062095;28;20047;-62
2023/06/18 10:11:31;;;;;;;2.40;1.63;;;29.80;38.50;;;;;;5057449;28;20025;-61
2023/06/18 10:14:02;;;;;;;2.25;1.73;;;29.90;38.70;;;;;;5055331;28;20074;-62
2023/06/18 10:16:30;;;;;;;2.97;1.67;;;29.90;38.00;;;;;;5038656;28;20040;-61
2023/06/18 10:19:05;;;;;;;2.38;1.70;;;29.90;37.90;;;;;;5059087;28;20523;-61
2023/06/18 10:21:34;;;;;;;1.92;1.60;;;29.90;37.60;;;;;;5054803;28;20040;-61
2023/06/18 10:24:22;;;;;;;3.00;1.85;;;30.00;37.80;;;;;;5036016;28;20383;-61
2023/06/18 10:26:48;;;;;;;2.53;2.08;;;30.00;37.90;;;;;;5057617;28;20032;-61
2023/06/18 10:29:15;;;;;;;1.95;1.85;;;30.00;37.90;;;;;;5055058;28;20040;-60
2023/06/18 10:31:42;;;;;;;4.03;2.85;;;29.90;37.70;;;;;;5055694;28;20032;-61
2023/06/18 10:34:08;;;;;;;7.65;4.75;;;29.90;37.40;;;;;;5060924;28;20159;-61
2023/06/18 10:36:36;;;;;;;9.73;3.40;;;30.00;36.30;;;;;;5053286;28;20100;-60
2023/06/18 10:39:02;;;;;;;3.95;2.95;;;29.90;36.40;;;;;;5055857;28;20024;-62
2023/06/18 10:41:28;;;;;;;2.92;2.13;;;29.80;36.40;;;;;;5036627;28;20218;-62
2023/06/18 10:43:55;;;;;;;3.42;2.10;;;29.80;37.00;;;;;;5052503;28;20103;-62
2023/06/18 10:46:21;;;;;;;1.92;1.60;;;29.80;37.20;;;;;;5052374;28;20025;-60
2023/06/18 10:49:14;;;;;;;2.15;1.58;;;29.90;37.40;;;;;;5057873;28;20033;-60
2023/06/18 10:51:40;;;;;;;2.63;1.70;;;29.90;37.50;;;;;;5050803;28;20042;-61
2023/06/18 10:54:20;;;;;;;4.03;2.78;;;29.90;37.60;;;;;;5059518;28;20090;-60
2023/06/18 10:56:53;;;;;;;5.82;2.67;;;29.80;37.70;;;;;;5062595;28;20067;-60
2023/06/18 10:59:44;;;;;;;2.97;2.35;;;29.70;37.40;;;;;;5036143;28;20024;-60
2023/06/18 11:02:11;;;;;;;1.92;1.77;;;29.70;36.90;;;;;;5060314;28;20037;-60
2023/06/18 11:04:37;;;;;;;2.42;1.73;;;29.60;37.10;;;;;;5042378;28;20040;-61
2023/06/18 11:07:25;;;;;;;2.35;1.83;;;29.50;37.50;;;;;;5061121;28;20396;-60
2023/06/18 11:09:55;;;;;;;1.63;1.40;;;29.60;37.90;;;;;;5056058;28;20174;-61
2023/06/18 11:12:23;;;;;;;2.30;1.60;;;29.50;38.20;;;;;;5058983;28;20499;-61
2023/06/18 11:15:18;;;;;;;3.55;2.20;;;29.60;38.30;;;;;;5055028;28;20365;-61
2023/06/18 11:17:53;;;;;;;2.50;2.00;;;29.50;38.20;;;;;;5049178;28;20048;-61
2023/06/18 11:20:20;;;;;;;2.38;2.05;;;29.50;38.10;;;;;;5061954;28;20035;-60
2023/06/18 11:22:47;;;;;;;2.65;2.03;;;29.40;38.00;;;;;;5059384;28;20127;-62
2023/06/18 11:25:14;;;;;;;3.28;2.40;;;29.30;38.20;;;;;;5061745;28;20047;-62
2023/06/18 11:27:45;;;;;;;4.32;3.05;;;29.30;38.00;;;;;;5061093;28;20492;-60
2023/06/18 11:30:12;;;;;;;3.55;2.35;;;29.10;38.20;;;;;;5038005;28;20037;-60
2023/06/18 11:32:42;;;;;;;4.22;1.77;;;29.00;38.70;;;;;;5056653;28;20025;-61
2023/06/18 11:35:09;;;;;;;3.28;1.85;;;28.90;38.90;;;;;;5061696;28;20013;-62
2023/06/18 11:37:39;;;;;;;2.15;1.80;;;28.90;39.20;;;;;;5067265;28;20037;-62
2023/06/18 11:40:08;;;;;;;2.50;2.10;;;28.80;39.20;;;;;;5065932;28;20051;-62
2023/06/18 11:42:37;;;;;;;3.17;1.92;;;28.80;39.50;;;;;;5062919;28;20095;-61
2023/06/18 11:45:06;;;;;;;2.20;1.85;;;28.80;39.80;;;;;;5056701;28;20025;-60
2023/06/18 11:47:34;;;;;;;2.38;1.88;;;28.80;40.00;;;;;;5063271;28;20044;-60
2023/06/18 11:50:00;;;;;;;1.38;1.17;;;28.80;39.90;;;;;;5057851;28;20025;-60
2023/06/18 11:52:27;;;;;;;1.48;1.15;;;28.80;40.00;;;;;;5063177;28;20036;-60
2023/06/18 11:54:54;;;;;;;1.48;1.33;;;28.90;40.70;;;;;;5064949;28;20058;-62
2023/06/18 11:57:22;;;;;;;1.40;1.30;;;28.80;40.30;;;;;;5066851;28;20040;-61
2023/06/18 11:59:52;;;;;;;2.42;1.95;;;28.80;40.50;;;;;;5065266;28;20445;-62
2023/06/18 12:02:19;;;;;;;1.52;1.40;;;28.90;40.10;;;;;;5061305;28;20051;-60
2023/06/18 12:04:45;;;;;;;2.22;1.60;;;28.80;40.60;;;;;;5062952;28;20114;-61
2023/06/18 12:07:22;;;;;;;2.63;2.00;;;28.90;41.10;;;;;;5062883;28;20032;-60
2023/06/18 12:09:50;;;;;;;1.70;1.55;;;28.90;40.90;;;;;;5059665;28;20102;-61
2023/06/18 12:12:21;;;;;;;1.50;1.40;;;28.80;40.90;;;;;;5064206;28;20039;-62
2023/06/18 12:15:22;;;;;;;1.98;1.50;;;28.90;41.10;;;;;;5059242;28;20073;-62
2023/06/18 12:17:50;;;;;;;1.63;1.48;;;28.90;41.30;;;;;;5064613;28;20166;-63
2023/06/18 12:20:19;;;;;;;1.95;1.60;;;28.90;41.30;;;;;;5067049;28;20060;-60
2023/06/18 12:22:46;;;;;;;3.10;2.05;;;29.00;41.30;;;;;;5066307;28;20111;-61
2023/06/18 12:25:12;;;;;;;1.90;1.77;;;29.00;41.20;;;;;;5067422;28;20436;-61
2023/06/18 12:27:40;;;;;;;2.03;1.83;;;28.90;41.40;;;;;;5068055;28;20021;-61
2023/06/18 12:30:07;;;;;;;2.15;1.67;;;28.90;41.40;;;;;;5060636;28;20119;-61
2023/06/18 12:32:34;;;;;;;1.63;1.30;;;29.00;41.60;;;;;;5048513;28;20086;-61
2023/06/18 12:35:13;;;;;;;2.55;1.67;;;29.00;41.70;;;;;;5065257;28;20066;-61
2023/06/18 12:37:47;;;;;;;1.40;1.30;;;29.00;41.10;;;;;;5061579;28;20028;-61
2023/06/18 12:40:19;;;;;;;1.95;1.65;;;29.00;41.10;;;;;;5060284;28;20097;-60
2023/06/18 12:42:49;;;;;;;1.55;1.40;;;29.00;41.30;;;;;;5066592;28;20062;-60
2023/06/18 12:45:21;;;;;;;1.52;1.35;;;29.00;40.90;;;;;;5065027;28;20041;-60
2023/06/18 12:47:47;;;;;;;1.42;1.25;;;29.00;41.00;;;;;;5061343;28;20048;-60
2023/06/18 12:50:39;;;;;;;1.55;1.20;;;29.00;40.90;;;;;;5067098;28;20083;-61